Palessa — V2IA7 — position and weather

sailwx.info

Track history (hours):
 
Tides and Currents Weather Stations Pressure Air Temp Water Temp Dewpoint Dewpoint Depression Visibility Wind Speed Wind Dir Waves Ship Positions

Palessa

Last reported at 2014-Dec-19 11:33 UTC. Time now 2014-Dec-19 12:01 UTC.
Position N 37°21' E 025°09'.

Length 118 m; draft 4.8 m.

Type: Cargo ship. MMSI: 304255000.

Date/timePositionNaut miles runAvg speedWind from/ knotsBaromVisibWave heightAir tempDewpointWater temp
2014-Dec-19 11:33N 37°21' E 025°09'1110.5
2014-Dec-19 10:33N 37°17' E 025°21'1110.5
2014-Dec-19 09:31N 37°14' E 025°34'1010.6
2014-Dec-19 08:33N 37°11' E 025°46'1010.3
2014-Dec-19 07:33N 37°06' E 025°57'1010.3
2014-Dec-19 06:33N 36°59' E 026°08'1010.3
2014-Dec-19 05:34N 36°52' E 026°17'1110.5
2014-Dec-19 04:34N 36°45' E 026°27'1110.9
2014-Dec-19 03:31N 36°37' E 026°36'1211.0
2014-Dec-19 02:25N 36°28' E 026°46'  
Track history (hours):
 
Tides and Currents Weather Stations Pressure Air Temp Water Temp Dewpoint Dewpoint Depression Visibility Wind Speed Wind Dir Waves Ship Positions

Palessa

Last reported at 2014-Dec-19 11:33 UTC. Time now 2014-Dec-19 12:01 UTC.
Position N 37°21' E 025°09'.

Length 118 m; draft 4.8 m.

Type: Cargo ship. MMSI: 304255000.

Date/timePositionNaut miles runAvg speedWind from/ knotsBaromVisibWave heightAir tempDewpointWater temp
2014-Dec-19 11:33N 37°21' E 025°09'1110.5
2014-Dec-19 10:33N 37°17' E 025°21'1110.5
2014-Dec-19 09:31N 37°14' E 025°34'1010.6
2014-Dec-19 08:33N 37°11' E 025°46'1010.3
2014-Dec-19 07:33N 37°06' E 025°57'1010.3
2014-Dec-19 06:33N 36°59' E 026°08'1010.3
2014-Dec-19 05:34N 36°52' E 026°17'1110.5
2014-Dec-19 04:34N 36°45' E 026°27'1110.9
2014-Dec-19 03:31N 36°37' E 026°36'1211.0
2014-Dec-19 02:25N 36°28' E 026°46'  

Dump ship's entire track history